Time;durP1;ratioP1;P1;durP2;ratioP2;P2;SDS_P1;SDS_P2;PMS_P1;PMS_P2;Temp;Humidity;BMP_temperature;BMP_pressure;BME280_temperature;BME280_humidity;BME280_pressure;Samples;Min_cycle;Max_cycle;Signal;HPM_P1;HPM_P2
2021/04/17 00:01:33;;;;;;;8.60;7.65;;;0.70;96.60;;;;;;4806158;29;20058;-78
2021/04/17 00:04:03;;;;;;;12.10;7.97;;;0.70;96.80;;;;;;4805144;29;20035;-79
2021/04/17 00:06:31;;;;;;;9.35;7.18;;;0.70;96.90;;;;;;4789583;29;20067;-78
2021/04/17 00:09:00;;;;;;;12.75;9.23;;;0.70;96.80;;;;;;4805470;29;20058;-79
2021/04/17 00:11:28;;;;;;;9.75;8.73;;;0.70;97.10;;;;;;4805605;29;20062;-78
2021/04/17 00:13:55;;;;;;;11.32;7.47;;;0.60;97.30;;;;;;4806049;29;20063;-78
2021/04/17 00:16:23;;;;;;;9.80;7.65;;;0.70;97.20;;;;;;4805711;29;20063;-78
2021/04/17 00:18:50;;;;;;;11.32;9.18;;;0.60;97.40;;;;;;4803079;29;20058;-78
2021/04/17 00:21:18;;;;;;;9.82;8.02;;;0.60;97.30;;;;;;4787947;30;20051;-78
2021/04/17 00:23:46;;;;;;;10.32;9.10;;;0.70;97.20;;;;;;4787556;30;20058;-78
2021/04/17 00:26:13;;;;;;;18.85;8.63;;;0.70;97.60;;;;;;4787940;30;20059;-79
2021/04/17 00:28:41;;;;;;;11.38;8.35;;;0.80;97.50;;;;;;4787111;30;20051;-79
2021/04/17 00:31:08;;;;;;;14.85;8.43;;;0.80;97.30;;;;;;4786644;29;20051;-80
2021/04/17 00:33:35;;;;;;;13.02;8.25;;;0.90;97.00;;;;;;4771347;30;20051;-79
2021/04/17 00:36:03;;;;;;;10.57;8.85;;;0.80;97.60;;;;;;4800322;29;20043;-75
2021/04/17 00:38:30;;;;;;;13.18;9.52;;;0.80;97.30;;;;;;4805584;29;20059;-74
2021/04/17 00:40:59;;;;;;;10.27;8.85;;;0.80;97.50;;;;;;4805330;29;20061;-74
2021/04/17 00:43:27;;;;;;;12.48;9.80;;;0.80;97.30;;;;;;4804933;29;20520;-74
2021/04/17 00:45:55;;;;;;;12.38;10.32;;;0.80;97.50;;;;;;4805391;29;20062;-74
2021/04/17 00:48:23;;;;;;;14.38;11.60;;;0.90;98.10;;;;;;4805184;29;20058;-75
2021/04/17 00:50:50;;;;;;;10.43;9.27;;;0.90;97.40;;;;;;4804916;29;20062;-75
2021/04/17 00:53:18;;;;;;;14.02;12.65;;;0.90;96.90;;;;;;4805495;29;20062;-74
2021/04/17 00:55:47;;;;;;;13.07;10.27;;;1.00;97.30;;;;;;4789065;29;20046;-74
2021/04/17 00:58:14;;;;;;;16.05;12.25;;;0.90;97.30;;;;;;4790013;29;20075;-74
2021/04/17 01:00:42;;;;;;;13.32;8.55;;;0.80;97.20;;;;;;4786473;30;20598;-74
2021/04/17 01:03:29;;;;;;;11.52;9.70;;;0.90;97.40;;;;;;4785702;30;20051;-75
2021/04/17 01:06:02;;;;;;;9.85;7.53;;;0.80;97.30;;;;;;4796964;29;20081;-75
2021/04/17 01:09:08;;;;;;;12.90;8.98;;;0.80;97.20;;;;;;4804847;29;20050;-75
2021/04/17 01:11:57;;;;;;;8.95;7.95;;;0.80;97.40;;;;;;4748556;30;20060;-74
2021/04/17 01:14:27;;;;;;;10.40;8.32;;;0.80;97.40;;;;;;4802463;29;20055;-75
2021/04/17 01:16:56;;;;;;;10.52;8.93;;;0.70;97.30;;;;;;4804501;29;20058;-75
2021/04/17 01:20:03;;;;;;;12.13;8.77;;;0.70;97.30;;;;;;4804919;29;20058;-74
2021/04/17 01:22:31;;;;;;;14.02;8.88;;;0.70;97.40;;;;;;4777158;29;20054;-75
2021/04/17 01:25:11;;;;;;;12.73;8.75;;;0.70;97.40;;;;;;4804442;29;20537;-74
2021/04/17 01:27:39;;;;;;;10.00;8.75;;;0.60;97.50;;;;;;4804290;29;20054;-75
2021/04/17 01:30:17;;;;;;;10.65;7.28;;;0.50;97.60;;;;;;4804095;29;20062;-75
2021/04/17 01:32:45;;;;;;;9.85;7.72;;;0.50;98.00;;;;;;4794224;29;20407;-75
2021/04/17 01:35:17;;;;;;;10.93;8.68;;;0.40;97.80;;;;;;4792924;29;20043;-75
2021/04/17 01:37:50;;;;;;;54.55;40.70;;;0.40;97.80;;;;;;4804546;29;20047;-75
2021/04/17 01:40:23;;;;;;;18.38;13.27;;;0.50;98.00;;;;;;4804059;29;20059;-75
2021/04/17 01:42:51;;;;;;;11.77;8.93;;;0.50;98.00;;;;;;4804132;29;20062;-75
2021/04/17 01:45:23;;;;;;;11.75;9.60;;;0.40;97.90;;;;;;4804480;29;20051;-75
2021/04/17 01:47:54;;;;;;;10.05;7.65;;;0.40;97.60;;;;;;4804009;29;20047;-75
2021/04/17 01:50:27;;;;;;;14.38;12.20;;;0.40;97.60;;;;;;4804410;29;20062;-75
2021/04/17 01:52:57;;;;;;;11.95;8.38;;;0.30;97.60;;;;;;4803820;29;20066;-75
2021/04/17 01:55:26;;;;;;;12.25;9.15;;;0.20;97.70;;;;;;4787925;29;20450;-75
2021/04/17 01:57:54;;;;;;;11.68;9.95;;;0.20;98.10;;;;;;4804259;29;20063;-75
2021/04/17 02:00:21;;;;;;;12.75;9.60;;;0.20;98.20;;;;;;4803496;29;20059;-75
2021/04/17 02:02:51;;;;;;;11.82;10.55;;;0.20;98.20;;;;;;4803545;29;20058;-75
2021/04/17 02:05:19;;;;;;;13.82;11.02;;;0.20;98.10;;;;;;4788237;29;20051;-74
2021/04/17 02:07:46;;;;;;;12.52;9.93;;;0.20;97.90;;;;;;4803823;29;20531;-75
2021/04/17 02:10:14;;;;;;;11.40;9.60;;;0.20;97.90;;;;;;4803433;29;20550;-75
2021/04/17 02:12:41;;;;;;;11.70;10.50;;;0.10;98.10;;;;;;4803663;29;20055;-75
2021/04/17 02:15:09;;;;;;;13.55;10.52;;;0.20;98.00;;;;;;4803556;29;20050;-75
2021/04/17 02:17:56;;;;;;;12.73;11.18;;;0.10;98.20;;;;;;4803601;29;20063;-75
2021/04/17 02:20:35;;;;;;;11.32;9.75;;;0.10;98.60;;;;;;4789771;29;20541;-75
2021/04/17 02:23:02;;;;;;;21.05;12.77;;;0.20;98.50;;;;;;4785498;29;20065;-75
2021/04/17 02:25:30;;;;;;;14.00;10.32;;;0.30;98.10;;;;;;4786205;30;20059;-75
2021/04/17 02:27:58;;;;;;;16.83;10.10;;;0.10;97.80;;;;;;4785207;30;20048;-75
2021/04/17 02:30:26;;;;;;;15.38;11.93;;;0.10;98.00;;;;;;4785565;30;20066;-75
2021/04/17 02:32:58;;;;;;;15.38;9.65;;;0.20;97.80;;;;;;4785145;29;20055;-75
2021/04/17 02:35:25;;;;;;;14.80;9.65;;;0.10;97.70;;;;;;4793738;29;20397;-75
2021/04/17 02:37:53;;;;;;;15.20;11.68;;;0.10;97.90;;;;;;4803883;29;20059;-75
2021/04/17 02:40:20;;;;;;;15.85;11.15;;;0.10;98.00;;;;;;4802837;29;20058;-74
2021/04/17 02:42:47;;;;;;;13.82;9.48;;;0.10;98.10;;;;;;4803232;29;20062;-75
2021/04/17 02:45:15;;;;;;;14.18;11.10;;;0.20;97.90;;;;;;4803656;29;20066;-83
2021/04/17 02:47:42;;;;;;;15.63;10.65;;;0.10;97.90;;;;;;4803109;29;20054;-75
2021/04/17 02:50:10;;;;;;;14.93;11.73;;;0.10;97.90;;;;;;4787547;29;20062;-75
2021/04/17 02:52:37;;;;;;;51.00;30.35;;;0.10;97.90;;;;;;4803102;29;20054;-75
2021/04/17 02:55:05;;;;;;;15.40;12.45;;;0.00;98.40;;;;;;4803024;29;20050;-75
2021/04/17 02:57:32;;;;;;;17.60;11.77;;;0.10;98.10;;;;;;4793830;29;20062;-75
2021/04/17 03:00:00;;;;;;;14.95;10.55;;;0.10;97.90;;;;;;4784474;30;20517;-75
2021/04/17 03:02:27;;;;;;;14.95;12.15;;;0.00;98.00;;;;;;4785520;30;20070;-75
2021/04/17 03:04:55;;;;;;;13.80;11.32;;;0.00;97.80;;;;;;4787042;29;20066;-75
2021/04/17 03:07:22;;;;;;;24.70;13.05;;;0.00;97.90;;;;;;4802976;29;20046;-74
2021/04/17 03:09:49;;;;;;;14.05;10.77;;;0.00;98.30;;;;;;4803250;29;20413;-75
2021/04/17 03:12:16;;;;;;;15.55;12.82;;;0.00;98.20;;;;;;4802630;29;20061;-75
2021/04/17 03:14:44;;;;;;;12.75;10.80;;;0.00;98.30;;;;;;4802848;29;20066;-75
2021/04/17 03:17:11;;;;;;;15.45;10.98;;;0.10;98.10;;;;;;4803222;29;20055;-75
2021/04/17 03:19:38;;;;;;;13.40;10.38;;;0.10;98.20;;;;;;4802927;29;20050;-75
2021/04/17 03:22:07;;;;;;;16.95;10.13;;;0.10;98.20;;;;;;4804663;29;20050;-75
2021/04/17 03:24:35;;;;;;;15.93;12.63;;;0.00;98.30;;;;;;4806612;29;20061;-75
2021/04/17 03:27:04;;;;;;;17.08;12.00;;;0.00;98.50;;;;;;4806298;29;20055;-75
2021/04/17 03:29:31;;;;;;;13.95;11.60;;;0.00;98.40;;;;;;4806657;29;20065;-75
2021/04/17 03:31:59;;;;;;;13.00;10.30;;;-0.10;98.30;;;;;;4801743;29;20046;-75
2021/04/17 03:34:26;;;;;;;16.23;12.15;;;0.00;98.60;;;;;;4789543;29;20067;-75
2021/04/17 03:36:55;;;;;;;16.83;12.77;;;0.00;98.40;;;;;;4790052;29;20054;-75
2021/04/17 03:39:22;;;;;;;14.65;11.52;;;0.10;98.80;;;;;;4806333;29;20046;-75
2021/04/17 03:41:50;;;;;;;14.80;12.02;;;0.00;98.40;;;;;;4806352;29;20059;-75
2021/04/17 03:44:17;;;;;;;16.33;13.40;;;0.00;98.20;;;;;;4805877;29;20070;-75
2021/04/17 03:46:44;;;;;;;16.95;11.27;;;0.00;98.30;;;;;;4806204;29;20054;-75
2021/04/17 03:49:12;;;;;;;13.13;11.73;;;0.10;98.60;;;;;;4806442;29;20065;-75
2021/04/17 03:51:39;;;;;;;13.52;11.93;;;0.00;98.80;;;;;;4806166;29;20053;-75
2021/04/17 03:54:06;;;;;;;19.20;13.55;;;0.00;98.80;;;;;;4790245;29;20054;-75
2021/04/17 03:56:34;;;;;;;15.38;11.90;;;-0.10;98.70;;;;;;4806429;29;20052;-75
2021/04/17 03:59:01;;;;;;;13.88;10.48;;;-0.20;98.70;;;;;;4805705;29;20047;-74
2021/04/17 04:01:28;;;;;;;14.00;10.30;;;-0.20;98.80;;;;;;4789879;29;20059;-74
2021/04/17 04:03:57;;;;;;;20.38;12.57;;;-0.20;99.10;;;;;;4789677;29;20058;-74
2021/04/17 04:06:25;;;;;;;12.50;10.93;;;-0.20;99.20;;;;;;4790214;29;20066;-75
2021/04/17 04:08:52;;;;;;;14.45;11.00;;;-0.20;99.10;;;;;;4805845;29;20529;-75
2021/04/17 04:11:20;;;;;;;14.70;11.43;;;-0.20;99.60;;;;;;4805394;29;20046;-75
2021/04/17 04:13:47;;;;;;;20.52;12.50;;;-0.20;99.50;;;;;;4805798;29;20489;-75
2021/04/17 04:16:15;;;;;;;15.40;11.00;;;-0.10;99.20;;;;;;4805371;29;20697;-75
2021/04/17 04:18:43;;;;;;;15.23;12.52;;;-0.10;99.20;;;;;;4804055;29;20070;-75
2021/04/17 04:21:10;;;;;;;14.85;10.15;;;-0.20;99.20;;;;;;4788114;30;20055;-75
2021/04/17 04:23:37;;;;;;;18.02;11.93;;;-0.30;99.90;;;;;;4787658;30;20074;-74
2021/04/17 04:26:05;;;;;;;17.20;12.20;;;-0.20;99.90;;;;;;4788298;30;20059;-75
2021/04/17 04:28:32;;;;;;;16.42;11.27;;;-0.20;99.90;;;;;;4787263;30;20052;-75
2021/04/17 04:31:00;;;;;;;19.65;15.23;;;0.00;99.90;;;;;;4787277;29;20066;-75
2021/04/17 04:33:27;;;;;;;15.57;12.65;;;-0.10;99.80;;;;;;4787217;29;20070;-75
2021/04/17 04:35:55;;;;;;;20.83;14.23;;;0.00;99.80;;;;;;4783295;29;20528;-75
2021/04/17 04:38:22;;;;;;;26.90;13.95;;;0.00;99.80;;;;;;4805847;29;20382;-75
2021/04/17 04:40:50;;;;;;;17.60;13.00;;;0.10;99.90;;;;;;4804963;29;20055;-75
2021/04/17 04:43:17;;;;;;;17.70;13.43;;;0.10;99.90;;;;;;4804726;29;20050;-75
2021/04/17 04:45:44;;;;;;;19.95;14.68;;;0.10;99.90;;;;;;4805550;29;20055;-74
2021/04/17 04:48:12;;;;;;;18.02;13.77;;;0.20;99.90;;;;;;4804981;29;20509;-74
2021/04/17 04:50:40;;;;;;;24.38;15.07;;;0.20;99.90;;;;;;4804822;29;20069;-75
2021/04/17 04:53:07;;;;;;;23.70;14.63;;;0.40;99.90;;;;;;4805422;29;20390;-75
2021/04/17 04:55:34;;;;;;;18.77;13.95;;;0.40;99.50;;;;;;4788843;29;20062;-75
2021/04/17 04:58:02;;;;;;;17.60;11.27;;;0.40;99.90;;;;;;4791389;29;20484;-75
2021/04/17 05:00:29;;;;;;;21.02;13.93;;;0.50;99.80;;;;;;4786718;30;20047;-75
2021/04/17 05:02:57;;;;;;;18.98;13.13;;;0.60;99.90;;;;;;4786331;29;20064;-75
2021/04/17 05:05:24;;;;;;;66.93;29.88;;;0.70;99.70;;;;;;4792860;29;20087;-75
2021/04/17 05:07:51;;;;;;;18.35;13.50;;;0.70;99.80;;;;;;4804838;29;20055;-75
2021/04/17 05:10:19;;;;;;;19.63;12.32;;;0.70;99.90;;;;;;4804755;29;20057;-75
2021/04/17 05:12:46;;;;;;;18.88;12.93;;;0.70;99.10;;;;;;4788482;29;20058;-75
2021/04/17 05:15:13;;;;;;;23.58;14.35;;;0.80;99.40;;;;;;4804465;29;20049;-75
2021/04/17 05:17:41;;;;;;;21.50;14.27;;;0.80;99.10;;;;;;4804910;29;20086;-75
2021/04/17 05:20:09;;;;;;;22.80;14.38;;;0.90;98.90;;;;;;4804426;29;20093;-75
2021/04/17 05:22:36;;;;;;;20.35;14.45;;;0.90;99.10;;;;;;4804676;29;20083;-75
2021/04/17 05:25:04;;;;;;;18.33;12.90;;;1.00;99.10;;;;;;4804854;29;20063;-74
2021/04/17 05:27:32;;;;;;;21.70;14.43;;;0.90;99.20;;;;;;4788349;29;20062;-74
2021/04/17 05:29:59;;;;;;;19.10;12.80;;;0.90;99.40;;;;;;4804614;29;20066;-75
2021/04/17 05:32:26;;;;;;;17.13;11.95;;;0.90;99.50;;;;;;4796388;29;20055;-75
2021/04/17 05:34:54;;;;;;;21.58;13.95;;;0.80;99.90;;;;;;4790553;29;20047;-74
2021/04/17 05:37:21;;;;;;;19.45;12.88;;;0.80;99.90;;;;;;4804682;29;20505;-75
2021/04/17 05:39:49;;;;;;;18.92;15.23;;;0.80;99.90;;;;;;4804290;29;20051;-75
2021/04/17 05:42:16;;;;;;;20.10;14.63;;;0.80;99.90;;;;;;4788039;29;20066;-75
2021/04/17 05:44:44;;;;;;;20.98;13.57;;;0.90;99.90;;;;;;4803651;29;20527;-75
2021/04/17 05:47:11;;;;;;;21.67;14.95;;;0.90;99.90;;;;;;4803813;29;20517;-75
2021/04/17 05:49:38;;;;;;;21.15;13.27;;;1.00;99.90;;;;;;4804413;29;20058;-75
2021/04/17 05:52:06;;;;;;;22.73;15.45;;;1.00;99.90;;;;;;4803192;29;20054;-75
2021/04/17 05:54:33;;;;;;;20.90;13.93;;;1.20;99.90;;;;;;4804030;29;20612;-74
2021/04/17 05:57:00;;;;;;;22.08;16.45;;;1.20;99.90;;;;;;4803657;29;20051;-75
2021/04/17 05:59:27;;;;;;;20.63;13.75;;;1.20;99.70;;;;;;4803538;29;20062;-75
2021/04/17 06:01:55;;;;;;;22.15;14.63;;;1.30;99.80;;;;;;4804114;29;20055;-75
2021/04/17 06:04:22;;;;;;;20.98;14.73;;;1.30;99.70;;;;;;4804013;29;20051;-75
2021/04/17 06:06:49;;;;;;;23.52;14.13;;;1.50;99.90;;;;;;4803601;29;20070;-75
2021/04/17 06:09:19;;;;;;;21.80;13.27;;;1.70;99.60;;;;;;4804172;29;20386;-75
2021/04/17 06:11:46;;;;;;;22.13;16.13;;;1.90;99.70;;;;;;4803550;29;20057;-75
2021/04/17 06:14:13;;;;;;;26.38;18.10;;;1.90;99.00;;;;;;4788036;29;20054;-75
2021/04/17 06:16:41;;;;;;;26.80;17.08;;;1.80;99.90;;;;;;4803861;29;20050;-75
2021/04/17 06:19:09;;;;;;;25.83;17.35;;;1.80;99.20;;;;;;4798791;29;20047;-74
2021/04/17 06:21:37;;;;;;;23.92;17.67;;;1.70;99.50;;;;;;4785737;30;20513;-74
2021/04/17 06:24:05;;;;;;;22.13;18.48;;;1.80;99.70;;;;;;4785572;29;20054;-75
2021/04/17 06:26:33;;;;;;;26.63;17.13;;;1.80;99.10;;;;;;4778850;30;20066;-75
2021/04/17 06:29:01;;;;;;;23.65;17.48;;;1.80;99.10;;;;;;4784784;30;20057;-75
2021/04/17 06:31:28;;;;;;;23.15;15.02;;;1.80;99.20;;;;;;4785256;29;20044;-75
2021/04/17 06:33:55;;;;;;;26.20;16.13;;;1.80;98.90;;;;;;4785560;30;20058;-75
2021/04/17 06:36:23;;;;;;;27.58;15.43;;;1.80;99.20;;;;;;4800839;29;20076;-75
2021/04/17 06:38:50;;;;;;;28.52;17.25;;;1.90;99.60;;;;;;4803253;29;20055;-75
2021/04/17 06:41:23;;;;;;;23.10;16.63;;;2.00;98.90;;;;;;4803541;29;20057;-75
2021/04/17 06:43:51;;;;;;;21.05;14.90;;;2.00;99.60;;;;;;4802968;29;20062;-75
2021/04/17 06:46:21;;;;;;;23.75;16.52;;;2.10;98.70;;;;;;4787348;29;20417;-75
2021/04/17 06:48:48;;;;;;;24.60;17.10;;;2.20;98.70;;;;;;4802998;29;20517;-75
2021/04/17 06:51:18;;;;;;;24.67;16.48;;;2.20;99.00;;;;;;4802757;29;20047;-75
2021/04/17 06:53:46;;;;;;;26.63;17.00;;;2.30;98.50;;;;;;4802812;29;20054;-75
2021/04/17 06:56:14;;;;;;;21.45;17.15;;;2.50;99.00;;;;;;4802721;29;20047;-75
2021/04/17 06:58:42;;;;;;;19.73;14.15;;;2.60;98.00;;;;;;4784710;30;20074;-74
2021/04/17 07:01:09;;;;;;;27.02;17.00;;;2.70;98.50;;;;;;4785367;30;20421;-75
2021/04/17 07:03:37;;;;;;;20.33;17.27;;;2.60;98.10;;;;;;4785014;29;20528;-75
2021/04/17 07:06:04;;;;;;;29.52;17.30;;;2.70;99.90;;;;;;4795998;29;20059;-75
2021/04/17 07:08:32;;;;;;;23.73;14.88;;;2.90;97.50;;;;;;4802680;29;20051;-75
2021/04/17 07:11:00;;;;;;;25.25;16.13;;;3.00;97.00;;;;;;4786716;29;20050;-75
2021/04/17 07:13:27;;;;;;;26.00;17.48;;;3.10;97.70;;;;;;4802902;29;20517;-75
2021/04/17 07:16:08;;;;;;;25.83;16.33;;;2.90;97.20;;;;;;4802908;29;20054;-76
2021/04/17 07:18:38;;;;;;;22.33;13.57;;;2.90;97.00;;;;;;4802409;29;20070;-76
2021/04/17 07:21:13;;;;;;;25.87;17.47;;;2.80;97.20;;;;;;4802962;29;20429;-76
2021/04/17 07:23:43;;;;;;;24.88;16.48;;;2.80;97.30;;;;;;4802248;29;20047;-76
2021/04/17 07:26:16;;;;;;;20.13;13.60;;;2.90;98.10;;;;;;4803524;29;20414;-75
2021/04/17 07:29:13;;;;;;;36.33;15.20;;;2.90;97.10;;;;;;4802739;29;20042;-80
2021/04/17 07:31:52;;;;;;;20.42;14.38;;;2.80;97.70;;;;;;4802277;29;20046;-76
2021/04/17 07:34:22;;;;;;;19.88;13.95;;;2.70;97.80;;;;;;4803062;29;20054;-76
2021/04/17 07:36:55;;;;;;;24.73;13.10;;;3.00;97.30;;;;;;4800592;29;20077;-80
2021/04/17 07:39:38;;;;;;;17.38;13.18;;;3.00;97.40;;;;;;4802155;29;20062;-76
2021/04/17 07:42:10;;;;;;;17.92;13.65;;;3.10;97.40;;;;;;4802736;29;20055;-77
2021/04/17 07:44:40;;;;;;;20.40;13.70;;;3.20;97.20;;;;;;4802158;29;20051;-76
2021/04/17 07:47:09;;;;;;;14.90;10.68;;;3.20;97.40;;;;;;4803054;29;20058;-76
2021/04/17 07:49:39;;;;;;;26.25;15.05;;;3.20;96.90;;;;;;4803013;29;20742;-77
2021/04/17 07:52:11;;;;;;;19.98;15.00;;;3.20;97.80;;;;;;4801965;29;20062;-77
2021/04/17 07:55:03;;;;;;;23.08;14.52;;;3.10;97.10;;;;;;4802105;29;20107;-77
2021/04/17 07:57:45;;;;;;;17.58;11.25;;;3.00;96.70;;;;;;4803181;29;20058;-77
2021/04/17 08:00:16;;;;;;;17.60;11.93;;;2.90;97.50;;;;;;4802090;29;20062;-76
2021/04/17 08:02:47;;;;;;;19.70;14.15;;;2.90;97.60;;;;;;4802395;29;20062;-77
2021/04/17 08:05:15;;;;;;;13.15;10.73;;;3.00;97.70;;;;;;4786901;29;20385;-76
2021/04/17 08:07:43;;;;;;;14.52;9.18;;;3.00;96.90;;;;;;4802634;29;20059;-77
2021/04/17 08:10:13;;;;;;;14.50;9.95;;;3.20;96.80;;;;;;4789728;29;20509;-77
2021/04/17 08:12:42;;;;;;;15.98;10.43;;;3.30;96.30;;;;;;4805658;29;20050;-76
2021/04/17 08:15:13;;;;;;;16.30;12.95;;;3.60;95.90;;;;;;4805662;29;20058;-77
2021/04/17 08:17:42;;;;;;;19.73;11.77;;;3.60;95.80;;;;;;4806057;29;20058;-77
2021/04/17 08:20:12;;;;;;;19.52;14.05;;;3.90;95.60;;;;;;4792574;29;20048;-76
2021/04/17 08:22:41;;;;;;;17.63;11.93;;;3.90;95.50;;;;;;4787669;29;20059;-76
2021/04/17 08:25:10;;;;;;;16.67;12.13;;;3.60;96.60;;;;;;4788115;30;20055;-76
2021/04/17 08:27:38;;;;;;;19.02;13.40;;;3.30;96.80;;;;;;4787742;30;20504;-76
2021/04/17 08:30:09;;;;;;;16.02;12.73;;;3.30;96.70;;;;;;4787494;30;20062;-77
2021/04/17 08:32:39;;;;;;;21.10;13.37;;;3.40;95.50;;;;;;4786955;29;20051;-76
2021/04/17 08:35:25;;;;;;;12.30;9.03;;;3.70;95.40;;;;;;4793512;29;20288;-77
2021/04/17 08:37:52;;;;;;;13.77;9.75;;;3.90;94.10;;;;;;4805529;29;20382;-77
2021/04/17 08:40:38;;;;;;;14.63;9.15;;;4.40;94.40;;;;;;4805352;29;20053;-77
2021/04/17 08:43:15;;;;;;;16.60;10.00;;;4.40;93.50;;;;;;4804928;29;20047;-77
2021/04/17 08:46:05;;;;;;;14.30;10.52;;;4.50;94.00;;;;;;4805904;29;20059;-77
2021/04/17 08:48:53;;;;;;;15.85;11.60;;;4.60;95.40;;;;;;4804154;29;20069;-77
2021/04/17 08:51:21;;;;;;;13.02;8.93;;;4.50;93.80;;;;;;4804832;29;20512;-77
2021/04/17 08:54:01;;;;;;;11.98;9.63;;;4.30;92.50;;;;;;4805311;29;20074;-77
2021/04/17 08:56:47;;;;;;;16.25;10.80;;;4.20;93.30;;;;;;4803219;29;20046;-76
2021/04/17 08:59:23;;;;;;;11.50;9.07;;;4.20;93.50;;;;;;4785310;30;20062;-77
2021/04/17 09:01:52;;;;;;;12.05;10.10;;;4.20;93.40;;;;;;4770715;30;20066;-76
2021/04/17 09:04:22;;;;;;;13.05;8.60;;;4.20;94.10;;;;;;4785844;29;20520;-77
2021/04/17 09:06:53;;;;;;;14.15;7.97;;;4.20;94.50;;;;;;4803312;29;20066;-77
2021/04/17 09:09:25;;;;;;;7.82;6.90;;;4.30;95.60;;;;;;4805276;29;20058;-76
2021/04/17 09:12:13;;;;;;;10.05;7.65;;;4.00;92.00;;;;;;4804906;29;20051;-76
2021/04/17 09:14:55;;;;;;;13.70;7.45;;;3.90;93.20;;;;;;4804632;29;20050;-77
2021/04/17 09:17:31;;;;;;;10.48;8.52;;;4.00;93.10;;;;;;4805086;29;20054;-77
2021/04/17 09:20:01;;;;;;;8.10;6.90;;;4.10;94.00;;;;;;4804322;29;20066;-77
2021/04/17 09:22:32;;;;;;;8.05;7.20;;;4.30;92.70;;;;;;4803962;29;20066;-77
2021/04/17 09:25:04;;;;;;;9.77;8.83;;;4.50;92.70;;;;;;4804253;29;20821;-77
2021/04/17 09:27:37;;;;;;;11.65;9.88;;;4.70;93.00;;;;;;4804456;29;20063;-77
2021/04/17 09:30:06;;;;;;;11.35;9.25;;;4.60;93.00;;;;;;4804471;29;20433;-77
2021/04/17 09:32:44;;;;;;;10.00;8.23;;;4.60;93.10;;;;;;4794564;29;20051;-77
2021/04/17 09:35:25;;;;;;;12.40;8.52;;;4.80;92.00;;;;;;4792839;29;20409;-77
2021/04/17 09:38:10;;;;;;;10.13;7.25;;;4.90;91.50;;;;;;4804495;29;20077;-83
2021/04/17 09:40:54;;;;;;;12.25;8.68;;;5.20;90.90;;;;;;4773988;29;20054;-82
2021/04/17 09:43:30;;;;;;;10.02;8.32;;;5.10;91.00;;;;;;4803875;29;20055;-78
2021/04/17 09:46:00;;;;;;;26.50;11.88;;;5.00;92.50;;;;;;4787739;29;20093;-75
2021/04/17 09:48:37;;;;;;;12.00;9.20;;;4.80;94.00;;;;;;4788109;29;20055;-75
2021/04/17 09:51:19;;;;;;;10.95;8.73;;;4.90;91.90;;;;;;4788217;29;20418;-76
2021/04/17 09:53:51;;;;;;;14.20;9.20;;;5.00;91.80;;;;;;4804121;29;20066;-76
2021/04/17 09:56:38;;;;;;;12.25;9.32;;;5.10;91.90;;;;;;4804114;29;20059;-77
2021/04/17 09:59:15;;;;;;;15.80;10.90;;;5.00;92.60;;;;;;4803442;29;20058;-77
2021/04/17 10:01:56;;;;;;;18.40;10.52;;;4.80;92.10;;;;;;4803925;29;20508;-77
2021/04/17 10:04:44;;;;;;;15.88;13.50;;;4.70;92.70;;;;;;4804237;29;20414;-77
2021/04/17 10:07:11;;;;;;;14.20;10.98;;;4.50;93.70;;;;;;4804179;29;20074;-76
2021/04/17 10:09:39;;;;;;;18.67;12.90;;;4.50;93.70;;;;;;4804419;29;20063;-77
2021/04/17 10:12:11;;;;;;;15.35;12.18;;;4.40;93.30;;;;;;4803859;29;20054;-78
2021/04/17 10:14:38;;;;;;;15.52;10.57;;;4.70;93.80;;;;;;4803324;29;20051;-77
2021/04/17 10:17:06;;;;;;;15.48;11.20;;;4.70;92.40;;;;;;4804032;29;20086;-78
2021/04/17 10:19:34;;;;;;;13.35;10.20;;;5.00;93.80;;;;;;4795099;29;20047;-77
2021/04/17 10:22:02;;;;;;;12.98;9.52;;;5.20;91.70;;;;;;4786214;30;20063;-77
2021/04/17 10:24:36;;;;;;;12.85;10.82;;;5.10;92.50;;;;;;4785651;30;20059;-80
2021/04/17 10:27:13;;;;;;;14.23;9.95;;;5.20;92.70;;;;;;4784535;29;20051;-80
2021/04/17 10:29:44;;;;;;;14.45;11.73;;;5.30;92.00;;;;;;4784811;30;20071;-81
2021/04/17 10:32:22;;;;;;;13.13;10.52;;;5.40;93.00;;;;;;4784884;30;20401;-80
2021/04/17 10:34:52;;;;;;;15.32;12.68;;;5.00;91.30;;;;;;4789173;29;20062;-81
2021/04/17 10:37:23;;;;;;;15.10;12.10;;;5.10;93.00;;;;;;4803590;29;20428;-80
2021/04/17 10:39:58;;;;;;;11.70;9.70;;;5.40;92.30;;;;;;4803455;29;20061;-80
2021/04/17 10:42:25;;;;;;;18.40;11.00;;;5.30;91.70;;;;;;4803948;29;20054;-80
2021/04/17 10:44:55;;;;;;;15.60;11.15;;;4.90;92.00;;;;;;4803262;29;20046;-80
2021/04/17 10:47:23;;;;;;;11.95;10.52;;;5.20;92.00;;;;;;4786988;29;20039;-80
2021/04/17 10:49:50;;;;;;;16.95;11.73;;;5.30;91.40;;;;;;4803634;29;20078;-80
2021/04/17 10:52:27;;;;;;;11.23;8.77;;;5.20;90.80;;;;;;4802328;29;20055;-81
2021/04/17 10:54:57;;;;;;;12.50;10.88;;;5.40;90.60;;;;;;4802645;29;20735;-80
2021/04/17 10:57:25;;;;;;;15.85;10.95;;;5.50;91.30;;;;;;4783755;30;20062;-81
2021/04/17 11:00:00;;;;;;;12.40;10.10;;;5.70;90.30;;;;;;4784623;29;20074;-80
2021/04/17 11:02:34;;;;;;;14.40;12.90;;;5.60;90.30;;;;;;4785192;30;20074;-81
2021/04/17 11:05:04;;;;;;;11.35;10.18;;;5.40;91.60;;;;;;4787471;29;20051;-81
2021/04/17 11:07:37;;;;;;;13.25;9.50;;;5.30;91.50;;;;;;4802903;29;20505;-80
2021/04/17 11:10:07;;;;;;;15.90;11.25;;;5.20;91.00;;;;;;4786724;29;20409;-80
2021/04/17 11:12:36;;;;;;;16.33;10.43;;;5.30;90.90;;;;;;4802423;29;20489;-79
2021/04/17 11:15:14;;;;;;;11.48;10.27;;;5.70;90.70;;;;;;4802024;29;20394;-81
2021/04/17 11:17:42;;;;;;;17.05;10.27;;;5.70;90.10;;;;;;4803533;29;20058;-81
2021/04/17 11:20:20;;;;;;;12.30;10.80;;;6.00;89.10;;;;;;4791645;29;20058;-77
2021/04/17 11:22:48;;;;;;;13.52;10.45;;;6.20;88.60;;;;;;4802147;29;20062;-77
2021/04/17 11:25:15;;;;;;;13.82;10.48;;;6.20;88.20;;;;;;4803172;29;20054;-77
2021/04/17 11:27:42;;;;;;;11.82;9.38;;;5.90;90.60;;;;;;4802973;29;20047;-77
2021/04/17 11:30:10;;;;;;;13.85;11.30;;;5.50;91.20;;;;;;4803134;29;20525;-77
2021/04/17 11:32:38;;;;;;;15.10;11.23;;;5.50;89.70;;;;;;4792968;29;20058;-77
2021/04/17 11:35:10;;;;;;;9.00;8.10;;;5.70;88.60;;;;;;4790981;29;20047;-77
2021/04/17 11:37:37;;;;;;;20.45;12.70;;;6.00;88.70;;;;;;4803420;29;20055;-77
2021/04/17 11:40:06;;;;;;;11.98;9.52;;;6.20;90.80;;;;;;4802539;29;20445;-77
2021/04/17 11:42:33;;;;;;;11.15;8.93;;;6.30;88.70;;;;;;4803267;29;20063;-77
2021/04/17 11:45:01;;;;;;;12.20;8.65;;;6.10;84.80;;;;;;4805066;29;20523;-77
2021/04/17 11:47:28;;;;;;;11.45;9.38;;;6.00;85.50;;;;;;4774828;29;20059;-83
2021/04/17 11:49:56;;;;;;;9.73;8.68;;;6.40;86.90;;;;;;4789844;29;20051;-78
2021/04/17 11:52:23;;;;;;;10.48;9.15;;;6.60;82.40;;;;;;4789917;29;20062;-77
2021/04/17 11:54:52;;;;;;;10.80;9.20;;;6.50;85.00;;;;;;4789815;29;20066;-77
2021/04/17 11:57:19;;;;;;;9.65;8.65;;;6.80;87.10;;;;;;4806655;29;20401;-77
2021/04/17 11:59:47;;;;;;;12.65;9.52;;;6.70;83.40;;;;;;4805890;29;20058;-77
2021/04/17 12:02:14;;;;;;;12.63;9.57;;;6.40;85.00;;;;;;4806488;29;20518;-77
2021/04/17 12:04:42;;;;;;;9.65;8.73;;;6.10;85.20;;;;;;4805733;29;20047;-77
2021/04/17 12:07:09;;;;;;;8.93;7.35;;;6.00;85.20;;;;;;4805446;29;20061;-77
2021/04/17 12:09:36;;;;;;;7.70;6.68;;;6.00;84.90;;;;;;4802474;29;20051;-78
2021/04/17 12:12:05;;;;;;;10.38;8.35;;;5.80;84.90;;;;;;4789250;29;20058;-77
2021/04/17 12:14:32;;;;;;;11.63;7.45;;;6.10;86.90;;;;;;4788042;30;20055;-77
2021/04/17 12:16:59;;;;;;;11.02;8.30;;;6.50;85.50;;;;;;4787256;30;20051;-76
2021/04/17 12:19:27;;;;;;;10.93;9.07;;;6.80;81.80;;;;;;4787131;29;20399;-77
2021/04/17 12:21:54;;;;;;;8.88;7.97;;;6.90;83.70;;;;;;4787879;30;20062;-76
2021/04/17 12:24:22;;;;;;;11.85;7.93;;;7.00;83.30;;;;;;4787733;30;20059;-76
2021/04/17 12:26:51;;;;;;;9.88;6.47;;;7.00;81.70;;;;;;4787700;30;20528;-77
2021/04/17 12:29:18;;;;;;;8.77;7.30;;;6.80;82.20;;;;;;4786616;30;20066;-76
2021/04/17 12:31:46;;;;;;;11.85;9.32;;;6.70;84.00;;;;;;4787358;30;20051;-76
2021/04/17 12:34:13;;;;;;;12.13;8.27;;;6.50;84.00;;;;;;4787818;30;20051;-76
2021/04/17 12:36:41;;;;;;;10.40;8.07;;;6.60;87.20;;;;;;4788847;29;20438;-76
2021/04/17 12:39:08;;;;;;;14.70;7.68;;;6.60;84.70;;;;;;4805157;29;20065;-76
2021/04/17 12:41:35;;;;;;;8.95;7.50;;;6.70;83.40;;;;;;4805026;29;20065;-76
2021/04/17 12:44:03;;;;;;;11.00;8.30;;;6.50;83.10;;;;;;4804494;29;20077;-77
2021/04/17 12:46:30;;;;;;;11.20;8.05;;;6.40;84.40;;;;;;4805038;29;20070;-76
2021/04/17 12:48:58;;;;;;;9.48;7.55;;;6.20;87.90;;;;;;4805144;29;20070;-76
2021/04/17 12:51:26;;;;;;;10.85;8.65;;;5.90;90.40;;;;;;4804802;29;20062;-77
2021/04/17 12:53:54;;;;;;;15.35;7.85;;;5.60;90.60;;;;;;4804782;29;20395;-76
2021/04/17 12:56:21;;;;;;;11.05;8.23;;;5.60;91.00;;;;;;4803940;29;20050;-76